sensor_id;sensor_type;location;lat;lon;timestamp;P1;durP1;ratioP1;P2;durP2;ratioP2
24663;SDS011;12791;50.992;13.788;2022-07-23T00:01:35;1.98;;;1.90;;
24663;SDS011;12791;50.992;13.788;2022-07-23T00:04:02;2.03;;;1.70;;
24663;SDS011;12791;50.992;13.788;2022-07-23T00:06:28;2.20;;;2.00;;
24663;SDS011;12791;50.992;13.788;2022-07-23T00:08:55;1.70;;;1.60;;
24663;SDS011;12791;50.992;13.788;2022-07-23T00:11:23;2.00;;;1.90;;
24663;SDS011;12791;50.992;13.788;2022-07-23T00:13:50;2.35;;;2.15;;
24663;SDS011;12791;50.992;13.788;2022-07-23T00:16:16;2.25;;;2.15;;
24663;SDS011;12791;50.992;13.788;2022-07-23T00:18:43;2.38;;;2.28;;
24663;SDS011;12791;50.992;13.788;2022-07-23T00:21:09;2.25;;;2.15;;
24663;SDS011;12791;50.992;13.788;2022-07-23T00:23:36;2.10;;;2.00;;
24663;SDS011;12791;50.992;13.788;2022-07-23T00:26:03;2.50;;;2.40;;
24663;SDS011;12791;50.992;13.788;2022-07-23T00:28:34;2.08;;;1.98;;
24663;SDS011;12791;50.992;13.788;2022-07-23T00:31:00;1.92;;;1.80;;
24663;SDS011;12791;50.992;13.788;2022-07-23T00:33:27;1.85;;;1.83;;
24663;SDS011;12791;50.992;13.788;2022-07-23T00:35:54;2.00;;;1.90;;
24663;SDS011;12791;50.992;13.788;2022-07-23T00:38:21;2.50;;;2.40;;
24663;SDS011;12791;50.992;13.788;2022-07-23T00:40:47;2.00;;;1.90;;
24663;SDS011;12791;50.992;13.788;2022-07-23T00:43:14;2.03;;;1.92;;
24663;SDS011;12791;50.992;13.788;2022-07-23T00:45:42;1.95;;;1.85;;
24663;SDS011;12791;50.992;13.788;2022-07-23T00:48:09;3.83;;;2.45;;
24663;SDS011;12791;50.992;13.788;2022-07-23T00:50:35;2.50;;;2.30;;
24663;SDS011;12791;50.992;13.788;2022-07-23T00:53:02;2.15;;;2.05;;
24663;SDS011;12791;50.992;13.788;2022-07-23T00:55:29;2.20;;;2.10;;
24663;SDS011;12791;50.992;13.788;2022-07-23T00:57:56;2.53;;;2.33;;
24663;SDS011;12791;50.992;13.788;2022-07-23T01:00:24;2.03;;;1.92;;
24663;SDS011;12791;50.992;13.788;2022-07-23T01:02:52;2.70;;;2.60;;
24663;SDS011;12791;50.992;13.788;2022-07-23T01:05:19;2.78;;;2.30;;
24663;SDS011;12791;50.992;13.788;2022-07-23T01:07:47;2.45;;;2.35;;
24663;SDS011;12791;50.992;13.788;2022-07-23T01:10:14;2.72;;;2.58;;
24663;SDS011;12791;50.992;13.788;2022-07-23T01:13:00;2.95;;;2.75;;
24663;SDS011;12791;50.992;13.788;2022-07-23T01:15:28;2.28;;;2.05;;
24663;SDS011;12791;50.992;13.788;2022-07-23T01:17:56;3.15;;;2.78;;
24663;SDS011;12791;50.992;13.788;2022-07-23T01:20:23;2.83;;;2.72;;
24663;SDS011;12791;50.992;13.788;2022-07-23T01:22:52;3.20;;;3.00;;
24663;SDS011;12791;50.992;13.788;2022-07-23T01:25:19;3.75;;;3.47;;
24663;SDS011;12791;50.992;13.788;2022-07-23T01:27:46;3.88;;;3.67;;
24663;SDS011;12791;50.992;13.788;2022-07-23T01:30:13;3.33;;;3.13;;
24663;SDS011;12791;50.992;13.788;2022-07-23T01:32:40;3.20;;;2.90;;
24663;SDS011;12791;50.992;13.788;2022-07-23T01:35:07;2.70;;;2.60;;
24663;SDS011;12791;50.992;13.788;2022-07-23T01:37:35;3.42;;;3.22;;
24663;SDS011;12791;50.992;13.788;2022-07-23T01:40:03;2.88;;;2.67;;
24663;SDS011;12791;50.992;13.788;2022-07-23T01:42:31;3.55;;;3.25;;
24663;SDS011;12791;50.992;13.788;2022-07-23T01:44:58;3.70;;;3.40;;
24663;SDS011;12791;50.992;13.788;2022-07-23T01:47:24;3.40;;;3.20;;
24663;SDS011;12791;50.992;13.788;2022-07-23T01:49:52;2.90;;;2.80;;
24663;SDS011;12791;50.992;13.788;2022-07-23T01:52:18;3.50;;;3.00;;
24663;SDS011;12791;50.992;13.788;2022-07-23T01:54:45;3.45;;;3.22;;
24663;SDS011;12791;50.992;13.788;2022-07-23T01:57:13;3.35;;;3.15;;
24663;SDS011;12791;50.992;13.788;2022-07-23T01:59:40;3.42;;;3.22;;
24663;SDS011;12791;50.992;13.788;2022-07-23T02:02:06;3.90;;;3.60;;
24663;SDS011;12791;50.992;13.788;2022-07-23T02:04:33;3.20;;;3.00;;
24663;SDS011;12791;50.992;13.788;2022-07-23T02:07:01;3.08;;;2.88;;
24663;SDS011;12791;50.992;13.788;2022-07-23T02:09:28;3.38;;;3.17;;
24663;SDS011;12791;50.992;13.788;2022-07-23T02:11:55;4.63;;;3.13;;
24663;SDS011;12791;50.992;13.788;2022-07-23T02:14:23;4.10;;;3.30;;
24663;SDS011;12791;50.992;13.788;2022-07-23T02:16:50;2.75;;;2.65;;
24663;SDS011;12791;50.992;13.788;2022-07-23T02:19:17;3.50;;;3.25;;
24663;SDS011;12791;50.992;13.788;2022-07-23T02:21:43;3.30;;;3.10;;
24663;SDS011;12791;50.992;13.788;2022-07-23T02:24:10;3.33;;;3.13;;
24663;SDS011;12791;50.992;13.788;2022-07-23T02:26:37;3.47;;;3.28;;
24663;SDS011;12791;50.992;13.788;2022-07-23T02:29:03;3.30;;;3.10;;
24663;SDS011;12791;50.992;13.788;2022-07-23T02:31:32;3.22;;;3.03;;
24663;SDS011;12791;50.992;13.788;2022-07-23T02:33:59;3.15;;;3.05;;
24663;SDS011;12791;50.992;13.788;2022-07-23T02:36:26;3.50;;;3.30;;
24663;SDS011;12791;50.992;13.788;2022-07-23T02:38:53;3.70;;;3.50;;
24663;SDS011;12791;50.992;13.788;2022-07-23T02:41:20;3.20;;;3.10;;
24663;SDS011;12791;50.992;13.788;2022-07-23T02:43:46;3.30;;;3.10;;
24663;SDS011;12791;50.992;13.788;2022-07-23T02:46:13;3.00;;;2.90;;
24663;SDS011;12791;50.992;13.788;2022-07-23T02:48:41;2.95;;;2.85;;
24663;SDS011;12791;50.992;13.788;2022-07-23T02:51:07;3.15;;;2.95;;
24663;SDS011;12791;50.992;13.788;2022-07-23T02:53:34;3.65;;;3.45;;
24663;SDS011;12791;50.992;13.788;2022-07-23T02:56:01;4.55;;;3.08;;
24663;SDS011;12791;50.992;13.788;2022-07-23T02:58:27;6.45;;;3.75;;
24663;SDS011;12791;50.992;13.788;2022-07-23T03:00:54;3.60;;;3.38;;
24663;SDS011;12791;50.992;13.788;2022-07-23T03:03:21;3.60;;;3.40;;
24663;SDS011;12791;50.992;13.788;2022-07-23T03:05:49;3.50;;;3.30;;
24663;SDS011;12791;50.992;13.788;2022-07-23T03:08:15;3.10;;;2.90;;
24663;SDS011;12791;50.992;13.788;2022-07-23T03:10:42;4.10;;;3.80;;
24663;SDS011;12791;50.992;13.788;2022-07-23T03:13:09;3.80;;;3.20;;
24663;SDS011;12791;50.992;13.788;2022-07-23T03:15:35;3.58;;;3.38;;
24663;SDS011;12791;50.992;13.788;2022-07-23T03:18:02;3.60;;;3.30;;
24663;SDS011;12791;50.992;13.788;2022-07-23T03:20:29;3.45;;;3.25;;
24663;SDS011;12791;50.992;13.788;2022-07-23T03:22:56;3.50;;;3.30;;
24663;SDS011;12791;50.992;13.788;2022-07-23T03:25:23;5.78;;;3.42;;
24663;SDS011;12791;50.992;13.788;2022-07-23T03:27:50;3.65;;;3.35;;
24663;SDS011;12791;50.992;13.788;2022-07-23T03:30:16;3.15;;;3.05;;
24663;SDS011;12791;50.992;13.788;2022-07-23T03:32:43;4.10;;;3.70;;
24663;SDS011;12791;50.992;13.788;2022-07-23T03:35:10;3.25;;;3.15;;
24663;SDS011;12791;50.992;13.788;2022-07-23T03:37:37;3.50;;;3.30;;
24663;SDS011;12791;50.992;13.788;2022-07-23T03:40:05;4.75;;;3.92;;
24663;SDS011;12791;50.992;13.788;2022-07-23T03:42:33;4.15;;;3.70;;
24663;SDS011;12791;50.992;13.788;2022-07-23T03:44:59;4.40;;;4.10;;
24663;SDS011;12791;50.992;13.788;2022-07-23T03:47:26;3.20;;;3.00;;
24663;SDS011;12791;50.992;13.788;2022-07-23T03:49:53;3.78;;;3.58;;
24663;SDS011;12791;50.992;13.788;2022-07-23T03:52:20;3.42;;;3.30;;
24663;SDS011;12791;50.992;13.788;2022-07-23T03:54:46;3.65;;;3.45;;
24663;SDS011;12791;50.992;13.788;2022-07-23T03:57:15;3.42;;;3.22;;
24663;SDS011;12791;50.992;13.788;2022-07-23T03:59:41;3.33;;;3.03;;
24663;SDS011;12791;50.992;13.788;2022-07-23T04:02:08;3.75;;;3.08;;
24663;SDS011;12791;50.992;13.788;2022-07-23T04:04:35;3.13;;;3.03;;
24663;SDS011;12791;50.992;13.788;2022-07-23T04:07:01;3.08;;;2.88;;
24663;SDS011;12791;50.992;13.788;2022-07-23T04:09:28;3.60;;;3.40;;
24663;SDS011;12791;50.992;13.788;2022-07-23T04:11:55;3.30;;;3.10;;
24663;SDS011;12791;50.992;13.788;2022-07-23T04:14:22;3.55;;;3.35;;
24663;SDS011;12791;50.992;13.788;2022-07-23T04:16:49;2.95;;;2.85;;
24663;SDS011;12791;50.992;13.788;2022-07-23T04:19:16;3.65;;;3.45;;
24663;SDS011;12791;50.992;13.788;2022-07-23T04:21:42;3.80;;;3.65;;
24663;SDS011;12791;50.992;13.788;2022-07-23T04:24:09;3.00;;;2.90;;
24663;SDS011;12791;50.992;13.788;2022-07-23T04:26:36;3.80;;;3.60;;
24663;SDS011;12791;50.992;13.788;2022-07-23T04:29:02;3.20;;;3.10;;
24663;SDS011;12791;50.992;13.788;2022-07-23T04:31:30;3.25;;;3.15;;
24663;SDS011;12791;50.992;13.788;2022-07-23T04:33:57;3.22;;;3.00;;
24663;SDS011;12791;50.992;13.788;2022-07-23T04:36:23;3.85;;;3.38;;
24663;SDS011;12791;50.992;13.788;2022-07-23T04:38:50;3.97;;;3.78;;
24663;SDS011;12791;50.992;13.788;2022-07-23T04:41:17;4.05;;;3.85;;
24663;SDS011;12791;50.992;13.788;2022-07-23T04:43:43;4.18;;;3.85;;
24663;SDS011;12791;50.992;13.788;2022-07-23T04:46:10;3.90;;;3.70;;
24663;SDS011;12791;50.992;13.788;2022-07-23T04:48:38;4.45;;;4.07;;
24663;SDS011;12791;50.992;13.788;2022-07-23T04:51:05;3.53;;;3.30;;
24663;SDS011;12791;50.992;13.788;2022-07-23T04:53:31;4.18;;;3.88;;
24663;SDS011;12791;50.992;13.788;2022-07-23T04:55:58;4.80;;;4.50;;
24663;SDS011;12791;50.992;13.788;2022-07-23T04:58:25;4.78;;;4.47;;
24663;SDS011;12791;50.992;13.788;2022-07-23T05:00:51;4.15;;;3.95;;
24663;SDS011;12791;50.992;13.788;2022-07-23T05:03:18;4.63;;;4.30;;
24663;SDS011;12791;50.992;13.788;2022-07-23T05:05:46;4.45;;;4.15;;
24663;SDS011;12791;50.992;13.788;2022-07-23T05:08:12;4.28;;;3.92;;
24663;SDS011;12791;50.992;13.788;2022-07-23T05:10:39;3.90;;;3.70;;
24663;SDS011;12791;50.992;13.788;2022-07-23T05:13:06;3.65;;;3.45;;
24663;SDS011;12791;50.992;13.788;2022-07-23T05:15:33;3.80;;;3.50;;
24663;SDS011;12791;50.992;13.788;2022-07-23T05:18:00;3.40;;;3.20;;
24663;SDS011;12791;50.992;13.788;2022-07-23T05:20:27;3.40;;;3.20;;
24663;SDS011;12791;50.992;13.788;2022-07-23T05:22:55;2.97;;;2.80;;
24663;SDS011;12791;50.992;13.788;2022-07-23T05:25:22;4.22;;;3.90;;
24663;SDS011;12791;50.992;13.788;2022-07-23T05:27:48;4.55;;;4.15;;
24663;SDS011;12791;50.992;13.788;2022-07-23T05:30:15;3.70;;;3.40;;
24663;SDS011;12791;50.992;13.788;2022-07-23T05:32:41;3.40;;;3.20;;
24663;SDS011;12791;50.992;13.788;2022-07-23T05:35:08;3.60;;;3.33;;
24663;SDS011;12791;50.992;13.788;2022-07-23T05:37:35;3.22;;;3.13;;
24663;SDS011;12791;50.992;13.788;2022-07-23T05:40:04;3.92;;;3.63;;
24663;SDS011;12791;50.992;13.788;2022-07-23T05:42:33;4.07;;;3.33;;
24663;SDS011;12791;50.992;13.788;2022-07-23T05:44:59;4.68;;;3.92;;
24663;SDS011;12791;50.992;13.788;2022-07-23T05:47:26;5.28;;;3.33;;
24663;SDS011;12791;50.992;13.788;2022-07-23T05:49:53;3.17;;;2.97;;
24663;SDS011;12791;50.992;13.788;2022-07-23T05:52:19;4.20;;;3.72;;
24663;SDS011;12791;50.992;13.788;2022-07-23T05:54:46;4.75;;;4.40;;
24663;SDS011;12791;50.992;13.788;2022-07-23T05:57:14;4.60;;;4.30;;
24663;SDS011;12791;50.992;13.788;2022-07-23T05:59:40;3.85;;;3.63;;
24663;SDS011;12791;50.992;13.788;2022-07-23T06:02:07;5.88;;;4.85;;
24663;SDS011;12791;50.992;13.788;2022-07-23T06:04:34;4.97;;;4.57;;
24663;SDS011;12791;50.992;13.788;2022-07-23T06:07:00;4.22;;;4.03;;
24663;SDS011;12791;50.992;13.788;2022-07-23T06:09:27;4.78;;;4.38;;
24663;SDS011;12791;50.992;13.788;2022-07-23T06:11:53;3.85;;;3.60;;
24663;SDS011;12791;50.992;13.788;2022-07-23T06:14:21;3.90;;;3.70;;
24663;SDS011;12791;50.992;13.788;2022-07-23T06:16:48;3.42;;;3.22;;
24663;SDS011;12791;50.992;13.788;2022-07-23T06:19:15;5.20;;;4.80;;
24663;SDS011;12791;50.992;13.788;2022-07-23T06:21:41;4.80;;;4.40;;
24663;SDS011;12791;50.992;13.788;2022-07-23T06:24:08;4.43;;;4.13;;
24663;SDS011;12791;50.992;13.788;2022-07-23T06:26:35;4.63;;;4.32;;
24663;SDS011;12791;50.992;13.788;2022-07-23T06:29:01;4.75;;;4.45;;
24663;SDS011;12791;50.992;13.788;2022-07-23T06:31:29;4.85;;;4.45;;
24663;SDS011;12791;50.992;13.788;2022-07-23T06:33:56;4.90;;;4.60;;
24663;SDS011;12791;50.992;13.788;2022-07-23T06:36:23;5.25;;;4.82;;
24663;SDS011;12791;50.992;13.788;2022-07-23T06:38:49;5.43;;;4.97;;
24663;SDS011;12791;50.992;13.788;2022-07-23T06:41:16;5.50;;;5.00;;
24663;SDS011;12791;50.992;13.788;2022-07-23T06:43:42;5.80;;;5.25;;
24663;SDS011;12791;50.992;13.788;2022-07-23T06:46:09;4.97;;;4.57;;
24663;SDS011;12791;50.992;13.788;2022-07-23T06:48:37;6.07;;;5.63;;
24663;SDS011;12791;50.992;13.788;2022-07-23T06:51:04;6.70;;;6.20;;
24663;SDS011;12791;50.992;13.788;2022-07-23T06:53:31;6.10;;;5.45;;
24663;SDS011;12791;50.992;13.788;2022-07-23T06:55:57;5.50;;;5.10;;
24663;SDS011;12791;50.992;13.788;2022-07-23T06:58:24;7.10;;;5.97;;
24663;SDS011;12791;50.992;13.788;2022-07-23T07:00:51;7.32;;;6.82;;
24663;SDS011;12791;50.992;13.788;2022-07-23T07:03:17;8.43;;;7.20;;
24663;SDS011;12791;50.992;13.788;2022-07-23T07:05:45;6.70;;;6.00;;
24663;SDS011;12791;50.992;13.788;2022-07-23T07:08:12;6.65;;;6.15;;
24663;SDS011;12791;50.992;13.788;2022-07-23T07:10:39;6.47;;;5.88;;
24663;SDS011;12791;50.992;13.788;2022-07-23T07:13:05;6.07;;;5.65;;
24663;SDS011;12791;50.992;13.788;2022-07-23T07:15:32;6.82;;;6.32;;
24663;SDS011;12791;50.992;13.788;2022-07-23T07:17:59;6.60;;;6.10;;
24663;SDS011;12791;50.992;13.788;2022-07-23T07:20:26;7.15;;;6.45;;
24663;SDS011;12791;50.992;13.788;2022-07-23T07:22:54;6.30;;;5.80;;
24663;SDS011;12791;50.992;13.788;2022-07-23T07:25:20;7.25;;;6.65;;
24663;SDS011;12791;50.992;13.788;2022-07-23T07:27:47;6.72;;;6.22;;
24663;SDS011;12791;50.992;13.788;2022-07-23T07:30:14;7.32;;;6.63;;
24663;SDS011;12791;50.992;13.788;2022-07-23T07:32:41;7.97;;;7.25;;
24663;SDS011;12791;50.992;13.788;2022-07-23T07:35:08;5.90;;;5.50;;
24663;SDS011;12791;50.992;13.788;2022-07-23T07:37:35;6.40;;;5.93;;
24663;SDS011;12791;50.992;13.788;2022-07-23T07:40:03;6.63;;;6.13;;
24663;SDS011;12791;50.992;13.788;2022-07-23T07:42:30;5.90;;;5.47;;
24663;SDS011;12791;50.992;13.788;2022-07-23T07:44:57;5.20;;;4.80;;
24663;SDS011;12791;50.992;13.788;2022-07-23T07:47:24;7.10;;;6.50;;
24663;SDS011;12791;50.992;13.788;2022-07-23T07:49:50;8.60;;;7.72;;
24663;SDS011;12791;50.992;13.788;2022-07-23T07:52:17;8.23;;;7.53;;
24663;SDS011;12791;50.992;13.788;2022-07-23T07:54:44;6.80;;;6.22;;
24663;SDS011;12791;50.992;13.788;2022-07-23T07:57:11;7.07;;;6.57;;
24663;SDS011;12791;50.992;13.788;2022-07-23T07:59:38;5.88;;;5.38;;
24663;SDS011;12791;50.992;13.788;2022-07-23T08:02:05;7.28;;;6.70;;
24663;SDS011;12791;50.992;13.788;2022-07-23T08:04:32;7.60;;;6.88;;
24663;SDS011;12791;50.992;13.788;2022-07-23T08:06:58;7.57;;;6.95;;
24663;SDS011;12791;50.992;13.788;2022-07-23T08:09:25;8.00;;;7.30;;
24663;SDS011;12791;50.992;13.788;2022-07-23T08:11:51;7.38;;;6.72;;
24663;SDS011;12791;50.992;13.788;2022-07-23T08:14:19;7.78;;;6.97;;
24663;SDS011;12791;50.992;13.788;2022-07-23T08:16:46;7.47;;;6.90;;
24663;SDS011;12791;50.992;13.788;2022-07-23T08:19:13;7.53;;;6.82;;
24663;SDS011;12791;50.992;13.788;2022-07-23T08:21:39;6.90;;;6.10;;
24663;SDS011;12791;50.992;13.788;2022-07-23T08:24:06;6.03;;;5.63;;
24663;SDS011;12791;50.992;13.788;2022-07-23T08:26:33;7.13;;;6.53;;
24663;SDS011;12791;50.992;13.788;2022-07-23T08:28:59;7.07;;;6.43;;
24663;SDS011;12791;50.992;13.788;2022-07-23T08:31:27;8.43;;;7.63;;
24663;SDS011;12791;50.992;13.788;2022-07-23T08:33:54;7.03;;;6.43;;
24663;SDS011;12791;50.992;13.788;2022-07-23T08:36:22;7.70;;;7.00;;
24663;SDS011;12791;50.992;13.788;2022-07-23T08:38:48;6.60;;;6.05;;
24663;SDS011;12791;50.992;13.788;2022-07-23T08:41:15;6.25;;;5.72;;
24663;SDS011;12791;50.992;13.788;2022-07-23T08:43:42;7.00;;;6.35;;
24663;SDS011;12791;50.992;13.788;2022-07-23T08:46:10;6.30;;;5.88;;
24663;SDS011;12791;50.992;13.788;2022-07-23T08:48:40;7.97;;;7.28;;
24663;SDS011;12791;50.992;13.788;2022-07-23T08:51:07;6.88;;;6.28;;
24663;SDS011;12791;50.992;13.788;2022-07-23T08:53:35;7.05;;;6.30;;
24663;SDS011;12791;50.992;13.788;2022-07-23T08:56:04;5.68;;;5.30;;
24663;SDS011;12791;50.992;13.788;2022-07-23T08:58:31;5.60;;;5.20;;
24663;SDS011;12791;50.992;13.788;2022-07-23T09:00:58;6.97;;;6.28;;
24663;SDS011;12791;50.992;13.788;2022-07-23T09:03:25;6.90;;;6.38;;
24663;SDS011;12791;50.992;13.788;2022-07-23T09:05:55;6.82;;;6.22;;
24663;SDS011;12791;50.992;13.788;2022-07-23T09:08:23;6.93;;;6.43;;
24663;SDS011;12791;50.992;13.788;2022-07-23T09:10:52;6.18;;;5.78;;
24663;SDS011;12791;50.992;13.788;2022-07-23T09:13:24;5.70;;;5.20;;
24663;SDS011;12791;50.992;13.788;2022-07-23T09:15:53;6.00;;;5.60;;
24663;SDS011;12791;50.992;13.788;2022-07-23T09:18:27;6.90;;;6.32;;
24663;SDS011;12791;50.992;13.788;2022-07-23T09:21:19;8.10;;;7.03;;
24663;SDS011;12791;50.992;13.788;2022-07-23T09:23:50;6.40;;;5.90;;
24663;SDS011;12791;50.992;13.788;2022-07-23T09:26:31;7.97;;;7.15;;
24663;SDS011;12791;50.992;13.788;2022-07-23T09:29:01;7.60;;;5.90;;
24663;SDS011;12791;50.992;13.788;2022-07-23T09:31:34;6.55;;;6.05;;
24663;SDS011;12791;50.992;13.788;2022-07-23T09:34:10;7.70;;;6.47;;
24663;SDS011;12791;50.992;13.788;2022-07-23T09:36:40;8.32;;;7.45;;
24663;SDS011;12791;50.992;13.788;2022-07-23T09:39:07;6.03;;;5.57;;
24663;SDS011;12791;50.992;13.788;2022-07-23T09:41:35;6.40;;;5.90;;
24663;SDS011;12791;50.992;13.788;2022-07-23T09:44:07;5.90;;;5.50;;
24663;SDS011;12791;50.992;13.788;2022-07-23T09:46:36;6.38;;;5.80;;
24663;SDS011;12791;50.992;13.788;2022-07-23T09:49:09;6.60;;;6.07;;
24663;SDS011;12791;50.992;13.788;2022-07-23T09:51:44;6.72;;;6.05;;
24663;SDS011;12791;50.992;13.788;2022-07-23T09:54:23;5.78;;;5.30;;
24663;SDS011;12791;50.992;13.788;2022-07-23T09:56:53;5.32;;;4.82;;
24663;SDS011;12791;50.992;13.788;2022-07-23T09:59:22;5.95;;;5.38;;
24663;SDS011;12791;50.992;13.788;2022-07-23T10:01:51;5.85;;;5.35;;
24663;SDS011;12791;50.992;13.788;2022-07-23T10:04:20;5.18;;;4.68;;
24663;SDS011;12791;50.992;13.788;2022-07-23T10:06:50;4.90;;;4.60;;
24663;SDS011;12791;50.992;13.788;2022-07-23T10:09:19;5.50;;;5.00;;
24663;SDS011;12791;50.992;13.788;2022-07-23T10:11:50;6.10;;;5.53;;
24663;SDS011;12791;50.992;13.788;2022-07-23T10:14:19;6.63;;;6.13;;
24663;SDS011;12791;50.992;13.788;2022-07-23T10:16:47;6.90;;;6.35;;
24663;SDS011;12791;50.992;13.788;2022-07-23T10:19:14;5.68;;;5.28;;
24663;SDS011;12791;50.992;13.788;2022-07-23T10:21:42;5.20;;;4.80;;
24663;SDS011;12791;50.992;13.788;2022-07-23T10:24:18;6.35;;;5.80;;
24663;SDS011;12791;50.992;13.788;2022-07-23T10:26:57;6.82;;;6.07;;
24663;SDS011;12791;50.992;13.788;2022-07-23T10:29:35;6.90;;;6.40;;
24663;SDS011;12791;50.992;13.788;2022-07-23T10:32:08;5.90;;;5.50;;
24663;SDS011;12791;50.992;13.788;2022-07-23T10:34:44;5.43;;;5.03;;
24663;SDS011;12791;50.992;13.788;2022-07-23T10:37:17;6.97;;;6.35;;
24663;SDS011;12791;50.992;13.788;2022-07-23T10:39:51;5.88;;;5.40;;
24663;SDS011;12791;50.992;13.788;2022-07-23T10:42:35;6.20;;;5.60;;
24663;SDS011;12791;50.992;13.788;2022-07-23T10:45:03;6.10;;;5.50;;
24663;SDS011;12791;50.992;13.788;2022-07-23T10:47:49;5.72;;;5.30;;
24663;SDS011;12791;50.992;13.788;2022-07-23T10:50:17;6.20;;;5.70;;
24663;SDS011;12791;50.992;13.788;2022-07-23T10:55:41;6.63;;;6.13;;
24663;SDS011;12791;50.992;13.788;2022-07-23T10:58:09;6.00;;;5.50;;
24663;SDS011;12791;50.992;13.788;2022-07-23T11:00:37;6.32;;;5.82;;
24663;SDS011;12791;50.992;13.788;2022-07-23T11:03:04;6.43;;;6.03;;
24663;SDS011;12791;50.992;13.788;2022-07-23T11:05:51;7.15;;;6.55;;
24663;SDS011;12791;50.992;13.788;2022-07-23T11:08:18;6.28;;;5.72;;
24663;SDS011;12791;50.992;13.788;2022-07-23T11:10:51;7.43;;;6.82;;
24663;SDS011;12791;50.992;13.788;2022-07-23T11:13:35;6.95;;;6.30;;
24663;SDS011;12791;50.992;13.788;2022-07-23T11:16:16;6.13;;;5.63;;
24663;SDS011;12791;50.992;13.788;2022-07-23T11:18:54;7.10;;;6.32;;
24663;SDS011;12791;50.992;13.788;2022-07-23T11:24:14;6.30;;;5.68;;
24663;SDS011;12791;50.992;13.788;2022-07-23T11:26:48;6.53;;;6.03;;
24663;SDS011;12791;50.992;13.788;2022-07-23T11:32:22;5.97;;;5.45;;
24663;SDS011;12791;50.992;13.788;2022-07-23T11:35:17;6.93;;;6.30;;
24663;SDS011;12791;50.992;13.788;2022-07-23T11:37:46;6.30;;;5.82;;
24663;SDS011;12791;50.992;13.788;2022-07-23T11:40:15;5.10;;;4.80;;
24663;SDS011;12791;50.992;13.788;2022-07-23T11:42:52;5.57;;;5.15;;
24663;SDS011;12791;50.992;13.788;2022-07-23T11:45:20;5.68;;;5.10;;
24663;SDS011;12791;50.992;13.788;2022-07-23T11:47:48;5.40;;;5.00;;
24663;SDS011;12791;50.992;13.788;2022-07-23T11:50:14;6.20;;;5.55;;
24663;SDS011;12791;50.992;13.788;2022-07-23T11:52:41;5.88;;;5.30;;
24663;SDS011;12791;50.992;13.788;2022-07-23T11:55:09;5.32;;;4.93;;
24663;SDS011;12791;50.992;13.788;2022-07-23T11:57:37;5.20;;;4.80;;
24663;SDS011;12791;50.992;13.788;2022-07-23T12:00:07;5.50;;;5.07;;
24663;SDS011;12791;50.992;13.788;2022-07-23T12:02:36;5.22;;;4.82;;
24663;SDS011;12791;50.992;13.788;2022-07-23T12:05:03;5.93;;;5.32;;
24663;SDS011;12791;50.992;13.788;2022-07-23T12:07:31;5.30;;;4.90;;
24663;SDS011;12791;50.992;13.788;2022-07-23T12:09:59;5.97;;;5.57;;
24663;SDS011;12791;50.992;13.788;2022-07-23T12:12:27;5.45;;;4.95;;
24663;SDS011;12791;50.992;13.788;2022-07-23T12:15:02;5.45;;;4.97;;
24663;SDS011;12791;50.992;13.788;2022-07-23T12:17:34;5.60;;;5.10;;
24663;SDS011;12791;50.992;13.788;2022-07-23T12:20:04;6.07;;;5.47;;
24663;SDS011;12791;50.992;13.788;2022-07-23T12:22:33;5.38;;;4.97;;
24663;SDS011;12791;50.992;13.788;2022-07-23T12:25:03;6.15;;;5.50;;
24663;SDS011;12791;50.992;13.788;2022-07-23T12:27:32;5.85;;;5.40;;
24663;SDS011;12791;50.992;13.788;2022-07-23T12:29:59;6.22;;;5.53;;
24663;SDS011;12791;50.992;13.788;2022-07-23T12:32:43;7.30;;;6.70;;
24663;SDS011;12791;50.992;13.788;2022-07-23T12:35:12;7.45;;;6.85;;
24663;SDS011;12791;50.992;13.788;2022-07-23T12:37:39;8.20;;;6.63;;
24663;SDS011;12791;50.992;13.788;2022-07-23T12:40:20;6.50;;;6.07;;
24663;SDS011;12791;50.992;13.788;2022-07-23T12:42:49;7.35;;;6.65;;
24663;SDS011;12791;50.992;13.788;2022-07-23T12:45:18;6.28;;;5.60;;
24663;SDS011;12791;50.992;13.788;2022-07-23T12:50:42;7.03;;;6.40;;
24663;SDS011;12791;50.992;13.788;2022-07-23T12:53:14;7.45;;;6.82;;
24663;SDS011;12791;50.992;13.788;2022-07-23T12:55:42;7.47;;;6.70;;
24663;SDS011;12791;50.992;13.788;2022-07-23T12:58:11;7.53;;;6.47;;
24663;SDS011;12791;50.992;13.788;2022-07-23T13:00:51;7.03;;;6.43;;
24663;SDS011;12791;50.992;13.788;2022-07-23T13:03:25;7.03;;;6.43;;
24663;SDS011;12791;50.992;13.788;2022-07-23T13:06:10;7.20;;;6.55;;
24663;SDS011;12791;50.992;13.788;2022-07-23T13:08:37;6.88;;;6.35;;
24663;SDS011;12791;50.992;13.788;2022-07-23T13:11:06;6.85;;;6.25;;
24663;SDS011;12791;50.992;13.788;2022-07-23T13:13:34;7.03;;;6.43;;
24663;SDS011;12791;50.992;13.788;2022-07-23T13:16:01;7.25;;;6.65;;
24663;SDS011;12791;50.992;13.788;2022-07-23T13:18:30;6.75;;;6.15;;
24663;SDS011;12791;50.992;13.788;2022-07-23T13:20:57;7.40;;;6.15;;
24663;SDS011;12791;50.992;13.788;2022-07-23T13:23:24;7.00;;;6.53;;
24663;SDS011;12791;50.992;13.788;2022-07-23T13:25:51;7.05;;;6.55;;
24663;SDS011;12791;50.992;13.788;2022-07-23T13:28:18;7.38;;;6.78;;
24663;SDS011;12791;50.992;13.788;2022-07-23T13:30:46;6.60;;;6.00;;
24663;SDS011;12791;50.992;13.788;2022-07-23T13:33:15;7.18;;;6.68;;
24663;SDS011;12791;50.992;13.788;2022-07-23T13:35:44;7.28;;;6.68;;
24663;SDS011;12791;50.992;13.788;2022-07-23T13:38:10;7.15;;;6.65;;
24663;SDS011;12791;50.992;13.788;2022-07-23T13:40:38;7.28;;;6.75;;
24663;SDS011;12791;50.992;13.788;2022-07-23T13:43:07;7.75;;;7.13;;
24663;SDS011;12791;50.992;13.788;2022-07-23T13:45:34;6.47;;;6.07;;
24663;SDS011;12791;50.992;13.788;2022-07-23T13:48:01;7.68;;;6.97;;
24663;SDS011;12791;50.992;13.788;2022-07-23T13:50:28;6.93;;;6.43;;
24663;SDS011;12791;50.992;13.788;2022-07-23T13:52:56;7.20;;;6.60;;
24663;SDS011;12791;50.992;13.788;2022-07-23T13:55:23;8.30;;;7.50;;
24663;SDS011;12791;50.992;13.788;2022-07-23T13:57:49;8.20;;;7.50;;
24663;SDS011;12791;50.992;13.788;2022-07-23T14:00:16;7.53;;;6.93;;
24663;SDS011;12791;50.992;13.788;2022-07-23T14:02:43;7.18;;;6.68;;
24663;SDS011;12791;50.992;13.788;2022-07-23T14:05:10;7.32;;;6.80;;
24663;SDS011;12791;50.992;13.788;2022-07-23T14:07:37;7.65;;;6.95;;
24663;SDS011;12791;50.992;13.788;2022-07-23T14:10:09;8.10;;;7.43;;
24663;SDS011;12791;50.992;13.788;2022-07-23T14:12:36;7.22;;;6.72;;
24663;SDS011;12791;50.992;13.788;2022-07-23T14:15:04;7.82;;;7.20;;
24663;SDS011;12791;50.992;13.788;2022-07-23T14:17:33;8.30;;;7.43;;
24663;SDS011;12791;50.992;13.788;2022-07-23T14:19:59;8.63;;;7.90;;
24663;SDS011;12791;50.992;13.788;2022-07-23T14:22:26;8.07;;;7.28;;
24663;SDS011;12791;50.992;13.788;2022-07-23T14:24:53;8.32;;;7.72;;
24663;SDS011;12791;50.992;13.788;2022-07-23T14:27:21;8.50;;;7.70;;
24663;SDS011;12791;50.992;13.788;2022-07-23T14:29:47;8.70;;;7.85;;
24663;SDS011;12791;50.992;13.788;2022-07-23T14:32:14;8.77;;;7.97;;
24663;SDS011;12791;50.992;13.788;2022-07-23T14:34:41;7.78;;;7.20;;
24663;SDS011;12791;50.992;13.788;2022-07-23T14:37:09;8.55;;;7.85;;
24663;SDS011;12791;50.992;13.788;2022-07-23T14:39:36;8.40;;;7.30;;
24663;SDS011;12791;50.992;13.788;2022-07-23T14:42:03;7.50;;;6.78;;
24663;SDS011;12791;50.992;13.788;2022-07-23T14:44:32;7.53;;;6.82;;
24663;SDS011;12791;50.992;13.788;2022-07-23T14:46:59;8.68;;;7.85;;
24663;SDS011;12791;50.992;13.788;2022-07-23T14:49:25;7.90;;;7.20;;
24663;SDS011;12791;50.992;13.788;2022-07-23T14:51:52;7.88;;;7.10;;